< < Back
Terminal Aerodrome Forecast


Current Version              Previous Versions:   1  2  3  4  5  6  7  8  9  

Terminal Aerodrome Forecast

741
FTAK31 PAJN 261123
TAFAHN
TAF
PAHN 261123Z 2612/2712 31010G19KT P6SM SCT050 SCT070
     FM261500 29009KT P6SM FEW015 SCT070
     FM262000 12009KT P6SM VCSH SCT020 BKN040 BKN080
     FM270200 14007KT P6SM -SHRA SCT020 BKN040 OVC060
     FM270700 10004KT P6SM VCSH BKN050 OVC070
      AMD LTD TO CLD VIS AND WIND=

Latest METAR

047
SAUS70 KWBC 261700 RRA
MTRAHN
METAR KAHN 261651Z VRB03KT 10SM FEW025 FEW033 29/21 A3009 RMK AO2 SLP183
T02890211


USA.gov is the U.S. government's official web portal to all federal, state and local government web resources and services.